sensor_id;sensor_type;location;lat;lon;timestamp;P1;durP1;ratioP1;P2;durP2;ratioP2
50066;SDS011;35952;52.524;13.340;2024-02-14T00:00:34;8.70;;;7.50;;
50066;SDS011;35952;52.524;13.340;2024-02-14T00:02:59;8.67;;;7.77;;
50066;SDS011;35952;52.524;13.340;2024-02-14T00:05:25;10.50;;;6.47;;
50066;SDS011;35952;52.524;13.340;2024-02-14T00:07:51;8.13;;;6.70;;
50066;SDS011;35952;52.524;13.340;2024-02-14T00:10:16;10.87;;;6.60;;
50066;SDS011;35952;52.524;13.340;2024-02-14T00:12:42;11.63;;;7.13;;
50066;SDS011;35952;52.524;13.340;2024-02-14T00:15:08;8.00;;;6.90;;
50066;SDS011;35952;52.524;13.340;2024-02-14T00:17:34;8.27;;;6.93;;
50066;SDS011;35952;52.524;13.340;2024-02-14T00:20:03;7.53;;;6.67;;
50066;SDS011;35952;52.524;13.340;2024-02-14T00:22:30;9.40;;;6.87;;
50066;SDS011;35952;52.524;13.340;2024-02-14T00:24:56;7.87;;;6.90;;
50066;SDS011;35952;52.524;13.340;2024-02-14T00:27:21;10.73;;;6.47;;
50066;SDS011;35952;52.524;13.340;2024-02-14T00:29:47;8.10;;;7.20;;
50066;SDS011;35952;52.524;13.340;2024-02-14T00:32:13;8.20;;;6.67;;
50066;SDS011;35952;52.524;13.340;2024-02-14T00:34:38;9.00;;;7.17;;
50066;SDS011;35952;52.524;13.340;2024-02-14T00:37:04;8.77;;;7.23;;
50066;SDS011;35952;52.524;13.340;2024-02-14T00:39:29;8.20;;;7.23;;
50066;SDS011;35952;52.524;13.340;2024-02-14T00:41:55;8.33;;;6.73;;
50066;SDS011;35952;52.524;13.340;2024-02-14T00:44:21;10.00;;;7.93;;
50066;SDS011;35952;52.524;13.340;2024-02-14T00:46:47;8.27;;;7.40;;
50066;SDS011;35952;52.524;13.340;2024-02-14T00:49:13;10.23;;;7.30;;
50066;SDS011;35952;52.524;13.340;2024-02-14T00:51:39;8.80;;;8.00;;
50066;SDS011;35952;52.524;13.340;2024-02-14T00:54:05;10.03;;;8.00;;
50066;SDS011;35952;52.524;13.340;2024-02-14T00:56:31;10.67;;;7.00;;
50066;SDS011;35952;52.524;13.340;2024-02-14T00:58:56;11.43;;;6.80;;
50066;SDS011;35952;52.524;13.340;2024-02-14T01:01:22;12.00;;;7.00;;
50066;SDS011;35952;52.524;13.340;2024-02-14T01:03:48;10.97;;;8.00;;
50066;SDS011;35952;52.524;13.340;2024-02-14T01:06:14;7.47;;;6.77;;
50066;SDS011;35952;52.524;13.340;2024-02-14T01:08:40;11.67;;;8.20;;
50066;SDS011;35952;52.524;13.340;2024-02-14T01:11:06;8.87;;;7.07;;
50066;SDS011;35952;52.524;13.340;2024-02-14T01:13:32;9.00;;;6.80;;
50066;SDS011;35952;52.524;13.340;2024-02-14T01:15:58;13.60;;;7.57;;
50066;SDS011;35952;52.524;13.340;2024-02-14T01:18:23;10.23;;;7.40;;
50066;SDS011;35952;52.524;13.340;2024-02-14T01:20:50;9.10;;;7.67;;
50066;SDS011;35952;52.524;13.340;2024-02-14T01:23:15;12.17;;;7.47;;
50066;SDS011;35952;52.524;13.340;2024-02-14T01:25:41;9.83;;;6.90;;
50066;SDS011;35952;52.524;13.340;2024-02-14T01:28:07;12.37;;;7.93;;
50066;SDS011;35952;52.524;13.340;2024-02-14T01:30:33;7.80;;;7.00;;
50066;SDS011;35952;52.524;13.340;2024-02-14T01:33:00;10.10;;;7.33;;
50066;SDS011;35952;52.524;13.340;2024-02-14T01:35:29;9.23;;;6.97;;
50066;SDS011;35952;52.524;13.340;2024-02-14T01:37:57;11.50;;;7.13;;
50066;SDS011;35952;52.524;13.340;2024-02-14T01:40:23;9.80;;;8.30;;
50066;SDS011;35952;52.524;13.340;2024-02-14T01:42:49;8.87;;;7.10;;
50066;SDS011;35952;52.524;13.340;2024-02-14T01:45:14;10.50;;;7.63;;
50066;SDS011;35952;52.524;13.340;2024-02-14T01:47:40;8.13;;;7.03;;
50066;SDS011;35952;52.524;13.340;2024-02-14T01:50:06;11.57;;;7.23;;
50066;SDS011;35952;52.524;13.340;2024-02-14T01:52:36;8.07;;;7.30;;
50066;SDS011;35952;52.524;13.340;2024-02-14T01:55:05;8.40;;;6.70;;
50066;SDS011;35952;52.524;13.340;2024-02-14T01:57:33;7.97;;;7.27;;
50066;SDS011;35952;52.524;13.340;2024-02-14T01:59:59;8.93;;;7.30;;
50066;SDS011;35952;52.524;13.340;2024-02-14T02:02:29;9.93;;;7.80;;
50066;SDS011;35952;52.524;13.340;2024-02-14T02:04:55;9.27;;;7.20;;
50066;SDS011;35952;52.524;13.340;2024-02-14T02:07:20;7.83;;;6.60;;
50066;SDS011;35952;52.524;13.340;2024-02-14T02:09:46;9.87;;;7.63;;
50066;SDS011;35952;52.524;13.340;2024-02-14T02:12:11;9.77;;;7.87;;
50066;SDS011;35952;52.524;13.340;2024-02-14T02:14:37;10.90;;;7.63;;
50066;SDS011;35952;52.524;13.340;2024-02-14T02:17:02;10.43;;;7.93;;
50066;SDS011;35952;52.524;13.340;2024-02-14T02:19:33;9.67;;;7.60;;
50066;SDS011;35952;52.524;13.340;2024-02-14T02:21:59;9.70;;;6.93;;
50066;SDS011;35952;52.524;13.340;2024-02-14T02:24:25;11.30;;;7.30;;
50066;SDS011;35952;52.524;13.340;2024-02-14T02:26:51;8.20;;;7.40;;
50066;SDS011;35952;52.524;13.340;2024-02-14T02:29:16;9.00;;;7.17;;
50066;SDS011;35952;52.524;13.340;2024-02-14T02:31:44;9.50;;;6.67;;
50066;SDS011;35952;52.524;13.340;2024-02-14T02:34:10;13.77;;;7.13;;
50066;SDS011;35952;52.524;13.340;2024-02-14T02:36:35;9.87;;;7.77;;
50066;SDS011;35952;52.524;13.340;2024-02-14T02:39:03;14.00;;;8.40;;
50066;SDS011;35952;52.524;13.340;2024-02-14T02:41:29;8.53;;;7.37;;
50066;SDS011;35952;52.524;13.340;2024-02-14T02:43:59;7.87;;;6.83;;
50066;SDS011;35952;52.524;13.340;2024-02-14T02:46:26;7.37;;;6.47;;
50066;SDS011;35952;52.524;13.340;2024-02-14T02:48:52;10.40;;;9.20;;
50066;SDS011;35952;52.524;13.340;2024-02-14T02:51:19;11.97;;;9.00;;
50066;SDS011;35952;52.524;13.340;2024-02-14T02:53:45;9.00;;;7.60;;
50066;SDS011;35952;52.524;13.340;2024-02-14T02:56:12;8.87;;;7.60;;
50066;SDS011;35952;52.524;13.340;2024-02-14T02:58:38;11.73;;;8.13;;
50066;SDS011;35952;52.524;13.340;2024-02-14T03:01:07;7.77;;;6.70;;
50066;SDS011;35952;52.524;13.340;2024-02-14T03:03:34;9.47;;;6.90;;
50066;SDS011;35952;52.524;13.340;2024-02-14T03:06:01;8.80;;;7.50;;
50066;SDS011;35952;52.524;13.340;2024-02-14T03:08:28;11.20;;;6.37;;
50066;SDS011;35952;52.524;13.340;2024-02-14T03:10:55;10.70;;;7.67;;
50066;SDS011;35952;52.524;13.340;2024-02-14T03:13:24;8.40;;;6.47;;
50066;SDS011;35952;52.524;13.340;2024-02-14T03:15:50;7.20;;;6.30;;
50066;SDS011;35952;52.524;13.340;2024-02-14T03:18:15;7.60;;;6.90;;
50066;SDS011;35952;52.524;13.340;2024-02-14T03:20:41;6.83;;;6.23;;
50066;SDS011;35952;52.524;13.340;2024-02-14T03:23:06;14.13;;;8.77;;
50066;SDS011;35952;52.524;13.340;2024-02-14T03:25:32;8.50;;;7.50;;
50066;SDS011;35952;52.524;13.340;2024-02-14T03:27:57;7.10;;;6.40;;
50066;SDS011;35952;52.524;13.340;2024-02-14T03:30:23;7.73;;;6.63;;
50066;SDS011;35952;52.524;13.340;2024-02-14T03:32:49;8.07;;;7.23;;
50066;SDS011;35952;52.524;13.340;2024-02-14T03:35:15;6.93;;;6.33;;
50066;SDS011;35952;52.524;13.340;2024-02-14T03:37:42;12.40;;;7.23;;
50066;SDS011;35952;52.524;13.340;2024-02-14T03:40:09;8.03;;;7.23;;
50066;SDS011;35952;52.524;13.340;2024-02-14T03:42:35;9.07;;;7.37;;
50066;SDS011;35952;52.524;13.340;2024-02-14T03:45:01;10.07;;;7.57;;
50066;SDS011;35952;52.524;13.340;2024-02-14T03:47:30;9.47;;;7.10;;
50066;SDS011;35952;52.524;13.340;2024-02-14T03:49:57;12.33;;;8.20;;
50066;SDS011;35952;52.524;13.340;2024-02-14T03:52:26;8.70;;;7.07;;
50066;SDS011;35952;52.524;13.340;2024-02-14T03:54:52;8.60;;;7.23;;
50066;SDS011;35952;52.524;13.340;2024-02-14T03:57:17;10.43;;;7.47;;
50066;SDS011;35952;52.524;13.340;2024-02-14T03:59:46;8.60;;;7.70;;
50066;SDS011;35952;52.524;13.340;2024-02-14T04:02:11;11.30;;;7.90;;
50066;SDS011;35952;52.524;13.340;2024-02-14T04:04:38;7.43;;;6.53;;
50066;SDS011;35952;52.524;13.340;2024-02-14T04:07:07;9.10;;;7.30;;
50066;SDS011;35952;52.524;13.340;2024-02-14T04:09:33;8.57;;;7.63;;
50066;SDS011;35952;52.524;13.340;2024-02-14T04:11:59;10.20;;;7.47;;
50066;SDS011;35952;52.524;13.340;2024-02-14T04:14:25;9.40;;;7.80;;
50066;SDS011;35952;52.524;13.340;2024-02-14T04:16:50;8.80;;;7.83;;
50066;SDS011;35952;52.524;13.340;2024-02-14T04:19:16;8.67;;;7.27;;
50066;SDS011;35952;52.524;13.340;2024-02-14T04:21:42;10.97;;;8.13;;
50066;SDS011;35952;52.524;13.340;2024-02-14T04:24:08;9.73;;;7.83;;
50066;SDS011;35952;52.524;13.340;2024-02-14T04:26:34;10.37;;;7.40;;
50066;SDS011;35952;52.524;13.340;2024-02-14T04:29:00;8.90;;;7.90;;
50066;SDS011;35952;52.524;13.340;2024-02-14T04:31:26;12.37;;;9.40;;
50066;SDS011;35952;52.524;13.340;2024-02-14T04:33:54;10.90;;;7.50;;
50066;SDS011;35952;52.524;13.340;2024-02-14T04:36:20;9.63;;;7.83;;
50066;SDS011;35952;52.524;13.340;2024-02-14T04:38:48;9.40;;;7.27;;
50066;SDS011;35952;52.524;13.340;2024-02-14T04:41:14;11.30;;;7.80;;
50066;SDS011;35952;52.524;13.340;2024-02-14T04:43:40;11.90;;;7.60;;
50066;SDS011;35952;52.524;13.340;2024-02-14T04:46:06;7.70;;;6.90;;
50066;SDS011;35952;52.524;13.340;2024-02-14T04:48:33;10.67;;;7.80;;
50066;SDS011;35952;52.524;13.340;2024-02-14T04:51:00;12.20;;;7.80;;
50066;SDS011;35952;52.524;13.340;2024-02-14T04:53:26;9.83;;;8.03;;
50066;SDS011;35952;52.524;13.340;2024-02-14T04:55:52;8.77;;;8.00;;
50066;SDS011;35952;52.524;13.340;2024-02-14T04:58:18;11.23;;;8.37;;
50066;SDS011;35952;52.524;13.340;2024-02-14T05:00:44;10.83;;;7.77;;
50066;SDS011;35952;52.524;13.340;2024-02-14T05:03:10;8.80;;;7.97;;
50066;SDS011;35952;52.524;13.340;2024-02-14T05:05:35;12.13;;;8.97;;
50066;SDS011;35952;52.524;13.340;2024-02-14T05:08:01;12.50;;;8.40;;
50066;SDS011;35952;52.524;13.340;2024-02-14T05:10:30;9.67;;;7.43;;
50066;SDS011;35952;52.524;13.340;2024-02-14T05:12:56;10.10;;;8.50;;
50066;SDS011;35952;52.524;13.340;2024-02-14T05:15:21;9.10;;;7.40;;
50066;SDS011;35952;52.524;13.340;2024-02-14T05:17:47;9.10;;;7.77;;
50066;SDS011;35952;52.524;13.340;2024-02-14T05:20:14;8.00;;;6.90;;
50066;SDS011;35952;52.524;13.340;2024-02-14T05:22:41;8.90;;;7.23;;
50066;SDS011;35952;52.524;13.340;2024-02-14T05:25:07;9.70;;;7.33;;
50066;SDS011;35952;52.524;13.340;2024-02-14T05:27:36;10.23;;;8.20;;
50066;SDS011;35952;52.524;13.340;2024-02-14T05:30:02;10.30;;;7.70;;
50066;SDS011;35952;52.524;13.340;2024-02-14T05:32:30;12.83;;;7.50;;
50066;SDS011;35952;52.524;13.340;2024-02-14T05:34:57;11.57;;;7.20;;
50066;SDS011;35952;52.524;13.340;2024-02-14T05:37:25;8.70;;;7.67;;
50066;SDS011;35952;52.524;13.340;2024-02-14T05:39:56;14.40;;;8.40;;
50066;SDS011;35952;52.524;13.340;2024-02-14T05:42:22;11.60;;;8.10;;
50066;SDS011;35952;52.524;13.340;2024-02-14T05:44:49;10.87;;;7.40;;
50066;SDS011;35952;52.524;13.340;2024-02-14T05:47:17;9.40;;;8.27;;
50066;SDS011;35952;52.524;13.340;2024-02-14T05:49:43;9.63;;;7.93;;
50066;SDS011;35952;52.524;13.340;2024-02-14T05:52:09;9.23;;;7.60;;
50066;SDS011;35952;52.524;13.340;2024-02-14T05:54:35;15.17;;;8.27;;
50066;SDS011;35952;52.524;13.340;2024-02-14T05:57:00;13.40;;;7.70;;
50066;SDS011;35952;52.524;13.340;2024-02-14T05:59:27;15.23;;;8.57;;
50066;SDS011;35952;52.524;13.340;2024-02-14T06:01:53;12.70;;;8.43;;
50066;SDS011;35952;52.524;13.340;2024-02-14T06:04:18;12.47;;;7.60;;
50066;SDS011;35952;52.524;13.340;2024-02-14T06:06:44;12.80;;;9.43;;
50066;SDS011;35952;52.524;13.340;2024-02-14T06:09:09;8.93;;;8.13;;
50066;SDS011;35952;52.524;13.340;2024-02-14T06:11:36;11.70;;;8.53;;
50066;SDS011;35952;52.524;13.340;2024-02-14T06:14:04;12.70;;;8.00;;
50066;SDS011;35952;52.524;13.340;2024-02-14T06:16:33;10.07;;;8.70;;
50066;SDS011;35952;52.524;13.340;2024-02-14T06:18:59;11.57;;;8.40;;
50066;SDS011;35952;52.524;13.340;2024-02-14T06:21:27;14.17;;;8.67;;
50066;SDS011;35952;52.524;13.340;2024-02-14T06:23:53;11.83;;;10.23;;
50066;SDS011;35952;52.524;13.340;2024-02-14T06:26:19;12.53;;;9.00;;
50066;SDS011;35952;52.524;13.340;2024-02-14T06:28:45;14.30;;;9.50;;
50066;SDS011;35952;52.524;13.340;2024-02-14T06:31:11;11.97;;;8.90;;
50066;SDS011;35952;52.524;13.340;2024-02-14T06:33:37;9.77;;;8.77;;
50066;SDS011;35952;52.524;13.340;2024-02-14T06:36:02;9.03;;;8.13;;
50066;SDS011;35952;52.524;13.340;2024-02-14T06:38:28;9.80;;;8.03;;
50066;SDS011;35952;52.524;13.340;2024-02-14T06:40:56;9.87;;;8.73;;
50066;SDS011;35952;52.524;13.340;2024-02-14T06:43:21;9.93;;;8.43;;
50066;SDS011;35952;52.524;13.340;2024-02-14T06:45:47;14.87;;;9.30;;
50066;SDS011;35952;52.524;13.340;2024-02-14T06:48:13;11.40;;;8.23;;
50066;SDS011;35952;52.524;13.340;2024-02-14T06:50:39;11.70;;;8.50;;
50066;SDS011;35952;52.524;13.340;2024-02-14T06:53:04;16.13;;;9.40;;
50066;SDS011;35952;52.524;13.340;2024-02-14T06:55:31;12.90;;;9.30;;
50066;SDS011;35952;52.524;13.340;2024-02-14T06:57:57;12.70;;;8.90;;
50066;SDS011;35952;52.524;13.340;2024-02-14T07:00:29;15.93;;;8.87;;
50066;SDS011;35952;52.524;13.340;2024-02-14T07:03:02;13.07;;;9.00;;
50066;SDS011;35952;52.524;13.340;2024-02-14T07:05:27;14.43;;;9.60;;
50066;SDS011;35952;52.524;13.340;2024-02-14T07:07:54;13.33;;;8.67;;
50066;SDS011;35952;52.524;13.340;2024-02-14T07:10:20;11.67;;;9.13;;
50066;SDS011;35952;52.524;13.340;2024-02-14T07:12:45;11.30;;;8.57;;
50066;SDS011;35952;52.524;13.340;2024-02-14T07:15:11;9.20;;;8.20;;
50066;SDS011;35952;52.524;13.340;2024-02-14T07:17:36;13.43;;;9.20;;
50066;SDS011;35952;52.524;13.340;2024-02-14T07:20:03;13.03;;;9.40;;
50066;SDS011;35952;52.524;13.340;2024-02-14T07:22:29;12.63;;;8.20;;
50066;SDS011;35952;52.524;13.340;2024-02-14T07:24:59;8.90;;;7.90;;
50066;SDS011;35952;52.524;13.340;2024-02-14T07:27:24;12.70;;;8.63;;
50066;SDS011;35952;52.524;13.340;2024-02-14T07:29:50;9.57;;;7.17;;
50066;SDS011;35952;52.524;13.340;2024-02-14T07:32:15;8.90;;;8.07;;
50066;SDS011;35952;52.524;13.340;2024-02-14T07:34:42;9.23;;;8.00;;
50066;SDS011;35952;52.524;13.340;2024-02-14T07:37:07;8.40;;;7.60;;
50066;SDS011;35952;52.524;13.340;2024-02-14T07:39:33;10.40;;;7.93;;
50066;SDS011;35952;52.524;13.340;2024-02-14T07:42:00;7.43;;;6.73;;
50066;SDS011;35952;52.524;13.340;2024-02-14T07:44:25;13.40;;;8.07;;
50066;SDS011;35952;52.524;13.340;2024-02-14T07:46:51;7.73;;;6.67;;
50066;SDS011;35952;52.524;13.340;2024-02-14T07:49:17;14.70;;;7.77;;
50066;SDS011;35952;52.524;13.340;2024-02-14T07:51:44;11.60;;;7.03;;
50066;SDS011;35952;52.524;13.340;2024-02-14T07:54:12;10.00;;;7.13;;
50066;SDS011;35952;52.524;13.340;2024-02-14T07:56:39;8.57;;;7.73;;
50066;SDS011;35952;52.524;13.340;2024-02-14T07:59:04;9.90;;;7.37;;
50066;SDS011;35952;52.524;13.340;2024-02-14T08:01:30;8.10;;;7.17;;
50066;SDS011;35952;52.524;13.340;2024-02-14T08:03:57;7.83;;;6.53;;
50066;SDS011;35952;52.524;13.340;2024-02-14T08:06:23;9.50;;;6.27;;
50066;SDS011;35952;52.524;13.340;2024-02-14T08:08:49;10.20;;;5.90;;
50066;SDS011;35952;52.524;13.340;2024-02-14T08:11:18;7.70;;;6.90;;
50066;SDS011;35952;52.524;13.340;2024-02-14T08:13:44;11.20;;;6.13;;
50066;SDS011;35952;52.524;13.340;2024-02-14T08:16:10;7.73;;;6.33;;
50066;SDS011;35952;52.524;13.340;2024-02-14T08:18:35;7.20;;;6.50;;
50066;SDS011;35952;52.524;13.340;2024-02-14T08:21:01;8.07;;;6.63;;
50066;SDS011;35952;52.524;13.340;2024-02-14T08:23:29;8.20;;;7.40;;
50066;SDS011;35952;52.524;13.340;2024-02-14T08:25:54;10.37;;;6.90;;
50066;SDS011;35952;52.524;13.340;2024-02-14T08:28:20;11.43;;;6.93;;
50066;SDS011;35952;52.524;13.340;2024-02-14T08:30:46;9.60;;;6.70;;
50066;SDS011;35952;52.524;13.340;2024-02-14T08:33:12;8.73;;;6.00;;
50066;SDS011;35952;52.524;13.340;2024-02-14T08:35:38;6.87;;;6.17;;
50066;SDS011;35952;52.524;13.340;2024-02-14T08:38:03;7.47;;;6.70;;
50066;SDS011;35952;52.524;13.340;2024-02-14T08:40:29;8.03;;;6.77;;
50066;SDS011;35952;52.524;13.340;2024-02-14T08:42:54;9.33;;;6.27;;
50066;SDS011;35952;52.524;13.340;2024-02-14T08:45:20;10.10;;;6.40;;
50066;SDS011;35952;52.524;13.340;2024-02-14T08:47:45;7.67;;;6.60;;
50066;SDS011;35952;52.524;13.340;2024-02-14T08:50:11;7.90;;;5.93;;
50066;SDS011;35952;52.524;13.340;2024-02-14T08:52:36;8.20;;;7.40;;
50066;SDS011;35952;52.524;13.340;2024-02-14T08:55:05;6.70;;;5.90;;
50066;SDS011;35952;52.524;13.340;2024-02-14T08:57:35;8.17;;;7.47;;
50066;SDS011;35952;52.524;13.340;2024-02-14T09:00:01;7.80;;;5.73;;
50066;SDS011;35952;52.524;13.340;2024-02-14T09:02:29;8.07;;;5.40;;
50066;SDS011;35952;52.524;13.340;2024-02-14T09:04:54;9.93;;;5.47;;
50066;SDS011;35952;52.524;13.340;2024-02-14T09:07:20;5.00;;;4.50;;
50066;SDS011;35952;52.524;13.340;2024-02-14T09:09:45;7.13;;;4.80;;
50066;SDS011;35952;52.524;13.340;2024-02-14T09:12:11;5.60;;;4.80;;
50066;SDS011;35952;52.524;13.340;2024-02-14T09:14:36;6.90;;;4.97;;
50066;SDS011;35952;52.524;13.340;2024-02-14T09:17:02;8.47;;;5.20;;
50066;SDS011;35952;52.524;13.340;2024-02-14T09:19:27;8.20;;;4.13;;
50066;SDS011;35952;52.524;13.340;2024-02-14T09:21:53;6.60;;;5.50;;
50066;SDS011;35952;52.524;13.340;2024-02-14T09:24:19;5.30;;;4.80;;
50066;SDS011;35952;52.524;13.340;2024-02-14T09:26:45;8.50;;;4.17;;
50066;SDS011;35952;52.524;13.340;2024-02-14T09:29:10;5.03;;;4.43;;
50066;SDS011;35952;52.524;13.340;2024-02-14T09:31:36;10.77;;;5.33;;
50066;SDS011;35952;52.524;13.340;2024-02-14T09:34:02;5.60;;;4.20;;
50066;SDS011;35952;52.524;13.340;2024-02-14T09:36:28;5.07;;;4.57;;
50066;SDS011;35952;52.524;13.340;2024-02-14T09:38:54;6.07;;;4.37;;
50066;SDS011;35952;52.524;13.340;2024-02-14T09:41:36;6.20;;;4.80;;
50066;SDS011;35952;52.524;13.340;2024-02-14T09:44:03;4.43;;;4.13;;
50066;SDS011;35952;52.524;13.340;2024-02-14T09:46:28;6.43;;;4.93;;
50066;SDS011;35952;52.524;13.340;2024-02-14T09:48:58;6.20;;;4.57;;
50066;SDS011;35952;52.524;13.340;2024-02-14T09:51:27;6.23;;;4.60;;
50066;SDS011;35952;52.524;13.340;2024-02-14T09:53:54;5.93;;;4.47;;
50066;SDS011;35952;52.524;13.340;2024-02-14T09:56:20;15.37;;;6.00;;
50066;SDS011;35952;52.524;13.340;2024-02-14T09:58:49;16.43;;;5.70;;
50066;SDS011;35952;52.524;13.340;2024-02-14T10:01:20;6.00;;;5.40;;
50066;SDS011;35952;52.524;13.340;2024-02-14T10:03:48;4.30;;;4.00;;
50066;SDS011;35952;52.524;13.340;2024-02-14T10:06:15;6.13;;;5.60;;
50066;SDS011;35952;52.524;13.340;2024-02-14T10:08:41;7.97;;;5.40;;
50066;SDS011;35952;52.524;13.340;2024-02-14T10:11:07;5.60;;;4.50;;
50066;SDS011;35952;52.524;13.340;2024-02-14T10:13:33;8.90;;;4.80;;
50066;SDS011;35952;52.524;13.340;2024-02-14T10:15:59;6.43;;;5.30;;
50066;SDS011;35952;52.524;13.340;2024-02-14T10:18:25;7.83;;;6.50;;
50066;SDS011;35952;52.524;13.340;2024-02-14T10:20:52;5.60;;;5.03;;
50066;SDS011;35952;52.524;13.340;2024-02-14T10:23:21;8.80;;;5.73;;
50066;SDS011;35952;52.524;13.340;2024-02-14T10:25:49;7.43;;;6.00;;
50066;SDS011;35952;52.524;13.340;2024-02-14T10:28:16;4.90;;;4.50;;
50066;SDS011;35952;52.524;13.340;2024-02-14T10:30:44;10.40;;;5.73;;
50066;SDS011;35952;52.524;13.340;2024-02-14T10:33:11;9.33;;;5.50;;
50066;SDS011;35952;52.524;13.340;2024-02-14T10:35:36;30.83;;;19.10;;
50066;SDS011;35952;52.524;13.340;2024-02-14T10:38:06;23.90;;;16.87;;
50066;SDS011;35952;52.524;13.340;2024-02-14T10:40:34;8.47;;;7.30;;
50066;SDS011;35952;52.524;13.340;2024-02-14T10:43:03;9.27;;;8.37;;
50066;SDS011;35952;52.524;13.340;2024-02-14T10:45:30;7.53;;;6.80;;
50066;SDS011;35952;52.524;13.340;2024-02-14T10:47:56;6.40;;;5.80;;
50066;SDS011;35952;52.524;13.340;2024-02-14T10:50:24;10.17;;;6.43;;
50066;SDS011;35952;52.524;13.340;2024-02-14T10:52:57;9.10;;;7.20;;
50066;SDS011;35952;52.524;13.340;2024-02-14T10:55:27;7.23;;;5.90;;
50066;SDS011;35952;52.524;13.340;2024-02-14T10:57:54;9.97;;;6.10;;
50066;SDS011;35952;52.524;13.340;2024-02-14T11:00:22;6.97;;;5.87;;
50066;SDS011;35952;52.524;13.340;2024-02-14T11:02:48;11.17;;;6.37;;
50066;SDS011;35952;52.524;13.340;2024-02-14T11:05:16;6.50;;;5.40;;
50066;SDS011;35952;52.524;13.340;2024-02-14T11:07:44;6.57;;;5.80;;
50066;SDS011;35952;52.524;13.340;2024-02-14T11:10:13;6.77;;;5.30;;
50066;SDS011;35952;52.524;13.340;2024-02-14T11:12:40;6.57;;;6.00;;
50066;SDS011;35952;52.524;13.340;2024-02-14T11:15:39;6.40;;;5.77;;
50066;SDS011;35952;52.524;13.340;2024-02-14T11:18:06;6.23;;;5.07;;
50066;SDS011;35952;52.524;13.340;2024-02-14T11:20:35;7.40;;;5.33;;
50066;SDS011;35952;52.524;13.340;2024-02-14T11:23:04;8.77;;;6.70;;
50066;SDS011;35952;52.524;13.340;2024-02-14T11:25:34;19.10;;;14.43;;
50066;SDS011;35952;52.524;13.340;2024-02-14T11:28:00;8.00;;;6.17;;
50066;SDS011;35952;52.524;13.340;2024-02-14T11:30:39;6.60;;;5.93;;
50066;SDS011;35952;52.524;13.340;2024-02-14T11:33:10;7.17;;;5.70;;
50066;SDS011;35952;52.524;13.340;2024-02-14T11:35:43;6.03;;;5.47;;
50066;SDS011;35952;52.524;13.340;2024-02-14T11:38:10;7.03;;;6.43;;
50066;SDS011;35952;52.524;13.340;2024-02-14T11:40:36;10.00;;;5.60;;
50066;SDS011;35952;52.524;13.340;2024-02-14T11:45:43;7.30;;;5.50;;
50066;SDS011;35952;52.524;13.340;2024-02-14T11:48:11;7.40;;;5.60;;
50066;SDS011;35952;52.524;13.340;2024-02-14T11:50:41;6.50;;;5.03;;
50066;SDS011;35952;52.524;13.340;2024-02-14T11:53:11;8.07;;;4.70;;
50066;SDS011;35952;52.524;13.340;2024-02-14T11:55:44;5.50;;;4.77;;
50066;SDS011;35952;52.524;13.340;2024-02-14T11:58:12;5.87;;;5.37;;
50066;SDS011;35952;52.524;13.340;2024-02-14T12:00:42;8.23;;;5.40;;
50066;SDS011;35952;52.524;13.340;2024-02-14T12:03:22;6.10;;;5.50;;
50066;SDS011;35952;52.524;13.340;2024-02-14T12:05:52;7.63;;;5.50;;
50066;SDS011;35952;52.524;13.340;2024-02-14T12:08:18;6.60;;;5.90;;
50066;SDS011;35952;52.524;13.340;2024-02-14T12:10:45;6.23;;;5.40;;
50066;SDS011;35952;52.524;13.340;2024-02-14T12:13:15;10.63;;;5.23;;
50066;SDS011;35952;52.524;13.340;2024-02-14T12:15:46;6.67;;;5.37;;
50066;SDS011;35952;52.524;13.340;2024-02-14T12:18:13;7.10;;;5.60;;
50066;SDS011;35952;52.524;13.340;2024-02-14T12:20:39;7.37;;;6.60;;
50066;SDS011;35952;52.524;13.340;2024-02-14T12:23:05;8.07;;;6.80;;
50066;SDS011;35952;52.524;13.340;2024-02-14T12:25:31;7.40;;;6.60;;
50066;SDS011;35952;52.524;13.340;2024-02-14T12:27:58;10.70;;;7.10;;
50066;SDS011;35952;52.524;13.340;2024-02-14T12:33:13;7.77;;;7.00;;
50066;SDS011;35952;52.524;13.340;2024-02-14T12:35:43;7.90;;;5.77;;
50066;SDS011;35952;52.524;13.340;2024-02-14T12:38:10;7.20;;;6.20;;
50066;SDS011;35952;52.524;13.340;2024-02-14T12:40:37;5.97;;;5.43;;
50066;SDS011;35952;52.524;13.340;2024-02-14T12:43:03;9.00;;;6.37;;
50066;SDS011;35952;52.524;13.340;2024-02-14T12:45:30;7.53;;;6.33;;
50066;SDS011;35952;52.524;13.340;2024-02-14T12:47:56;9.90;;;6.00;;
50066;SDS011;35952;52.524;13.340;2024-02-14T12:50:22;6.47;;;5.87;;
50066;SDS011;35952;52.524;13.340;2024-02-14T12:52:47;7.40;;;6.07;;
50066;SDS011;35952;52.524;13.340;2024-02-14T12:55:13;9.23;;;6.00;;
50066;SDS011;35952;52.524;13.340;2024-02-14T12:57:40;7.87;;;6.57;;
50066;SDS011;35952;52.524;13.340;2024-02-14T13:00:06;8.47;;;5.83;;
50066;SDS011;35952;52.524;13.340;2024-02-14T13:02:33;6.53;;;5.93;;
50066;SDS011;35952;52.524;13.340;2024-02-14T13:04:59;10.50;;;6.40;;
50066;SDS011;35952;52.524;13.340;2024-02-14T13:07:26;6.73;;;5.87;;
50066;SDS011;35952;52.524;13.340;2024-02-14T13:09:52;6.73;;;5.90;;
50066;SDS011;35952;52.524;13.340;2024-02-14T13:12:18;8.17;;;6.57;;
50066;SDS011;35952;52.524;13.340;2024-02-14T13:14:43;6.70;;;6.10;;
50066;SDS011;35952;52.524;13.340;2024-02-14T13:17:09;6.43;;;5.27;;
50066;SDS011;35952;52.524;13.340;2024-02-14T13:19:35;6.20;;;5.60;;
50066;SDS011;35952;52.524;13.340;2024-02-14T13:22:01;7.70;;;5.50;;
50066;SDS011;35952;52.524;13.340;2024-02-14T13:24:27;7.10;;;5.73;;
50066;SDS011;35952;52.524;13.340;2024-02-14T13:26:53;6.53;;;5.93;;
50066;SDS011;35952;52.524;13.340;2024-02-14T13:29:18;7.90;;;6.20;;
50066;SDS011;35952;52.524;13.340;2024-02-14T13:31:44;6.30;;;5.50;;
50066;SDS011;35952;52.524;13.340;2024-02-14T13:34:10;9.07;;;6.03;;
50066;SDS011;35952;52.524;13.340;2024-02-14T13:36:36;6.07;;;5.50;;
50066;SDS011;35952;52.524;13.340;2024-02-14T13:39:02;6.83;;;6.10;;
50066;SDS011;35952;52.524;13.340;2024-02-14T13:41:27;6.10;;;5.60;;
50066;SDS011;35952;52.524;13.340;2024-02-14T13:43:53;9.30;;;6.10;;
50066;SDS011;35952;52.524;13.340;2024-02-14T13:46:19;15.03;;;7.13;;
50066;SDS011;35952;52.524;13.340;2024-02-14T13:48:44;12.07;;;8.90;;
50066;SDS011;35952;52.524;13.340;2024-02-14T13:51:10;9.40;;;6.70;;
50066;SDS011;35952;52.524;13.340;2024-02-14T13:53:35;15.40;;;6.20;;
50066;SDS011;35952;52.524;13.340;2024-02-14T13:56:01;8.90;;;6.20;;
50066;SDS011;35952;52.524;13.340;2024-02-14T13:58:26;6.13;;;5.53;;
50066;SDS011;35952;52.524;13.340;2024-02-14T14:00:52;7.47;;;5.60;;
50066;SDS011;35952;52.524;13.340;2024-02-14T14:03:18;8.80;;;5.23;;
50066;SDS011;35952;52.524;13.340;2024-02-14T14:05:44;7.50;;;5.10;;
50066;SDS011;35952;52.524;13.340;2024-02-14T14:08:09;5.60;;;4.90;;
50066;SDS011;35952;52.524;13.340;2024-02-14T14:10:35;8.93;;;7.30;;
50066;SDS011;35952;52.524;13.340;2024-02-14T14:13:00;10.80;;;5.87;;
50066;SDS011;35952;52.524;13.340;2024-02-14T14:15:26;5.40;;;5.00;;
50066;SDS011;35952;52.524;13.340;2024-02-14T14:17:51;7.10;;;6.30;;
50066;SDS011;35952;52.524;13.340;2024-02-14T14:20:17;8.10;;;5.73;;
50066;SDS011;35952;52.524;13.340;2024-02-14T14:22:43;6.00;;;5.40;;
50066;SDS011;35952;52.524;13.340;2024-02-14T14:25:09;6.37;;;5.30;;
50066;SDS011;35952;52.524;13.340;2024-02-14T14:27:35;6.43;;;5.40;;
50066;SDS011;35952;52.524;13.340;2024-02-14T14:30:00;7.40;;;5.17;;
50066;SDS011;35952;52.524;13.340;2024-02-14T14:32:26;6.80;;;6.10;;